sensor_id;sensor_type;location;lat;lon;timestamp;P1;durP1;ratioP1;P2;durP2;ratioP2
19671;SDS011;9983;51.114;13.788;2023-03-20T00:04:51;2.92;;;2.72;;
19671;SDS011;9983;51.114;13.788;2023-03-20T00:09:51;4.85;;;2.85;;
19671;SDS011;9983;51.114;13.788;2023-03-20T00:14:51;7.13;;;5.37;;
19671;SDS011;9983;51.114;13.788;2023-03-20T00:19:52;3.15;;;2.78;;
19671;SDS011;9983;51.114;13.788;2023-03-20T00:24:52;3.85;;;3.17;;
19671;SDS011;9983;51.114;13.788;2023-03-20T00:29:53;4.00;;;2.70;;
19671;SDS011;9983;51.114;13.788;2023-03-20T00:34:53;3.47;;;2.83;;
19671;SDS011;9983;51.114;13.788;2023-03-20T00:39:53;3.60;;;2.78;;
19671;SDS011;9983;51.114;13.788;2023-03-20T00:44:54;6.47;;;4.97;;
19671;SDS011;9983;51.114;13.788;2023-03-20T00:49:58;5.50;;;3.10;;
19671;SDS011;9983;51.114;13.788;2023-03-20T00:54:59;3.22;;;2.70;;
19671;SDS011;9983;51.114;13.788;2023-03-20T01:00:01;5.05;;;3.05;;
19671;SDS011;9983;51.114;13.788;2023-03-20T01:05:05;3.17;;;2.85;;
19671;SDS011;9983;51.114;13.788;2023-03-20T01:10:05;4.03;;;3.63;;
19671;SDS011;9983;51.114;13.788;2023-03-20T01:15:20;2.90;;;2.63;;
19671;SDS011;9983;51.114;13.788;2023-03-20T01:20:23;2.63;;;2.22;;
19671;SDS011;9983;51.114;13.788;2023-03-20T01:25:26;4.07;;;2.80;;
19671;SDS011;9983;51.114;13.788;2023-03-20T01:30:27;3.78;;;3.47;;
19671;SDS011;9983;51.114;13.788;2023-03-20T01:35:29;3.83;;;3.53;;
19671;SDS011;9983;51.114;13.788;2023-03-20T01:40:31;7.30;;;4.00;;
19671;SDS011;9983;51.114;13.788;2023-03-20T01:45:39;4.43;;;3.20;;
19671;SDS011;9983;51.114;13.788;2023-03-20T01:50:51;2.90;;;2.65;;
19671;SDS011;9983;51.114;13.788;2023-03-20T01:55:53;2.80;;;2.60;;
19671;SDS011;9983;51.114;13.788;2023-03-20T02:00:56;5.15;;;4.05;;
19671;SDS011;9983;51.114;13.788;2023-03-20T02:05:57;4.20;;;3.80;;
19671;SDS011;9983;51.114;13.788;2023-03-20T02:10:59;6.88;;;5.35;;
19671;SDS011;9983;51.114;13.788;2023-03-20T02:16:02;5.43;;;4.00;;
19671;SDS011;9983;51.114;13.788;2023-03-20T02:26:39;3.90;;;3.15;;
19671;SDS011;9983;51.114;13.788;2023-03-20T02:47:55;4.78;;;3.40;;
19671;SDS011;9983;51.114;13.788;2023-03-20T02:58:29;7.45;;;3.72;;
19671;SDS011;9983;51.114;13.788;2023-03-20T03:03:55;4.82;;;4.32;;
19671;SDS011;9983;51.114;13.788;2023-03-20T03:09:10;5.68;;;5.07;;
19671;SDS011;9983;51.114;13.788;2023-03-20T03:19:38;5.15;;;4.63;;
19671;SDS011;9983;51.114;13.788;2023-03-20T03:24:46;5.10;;;3.95;;
19671;SDS011;9983;51.114;13.788;2023-03-20T03:29:54;4.43;;;3.83;;
19671;SDS011;9983;51.114;13.788;2023-03-20T03:34:57;3.75;;;3.38;;
19671;SDS011;9983;51.114;13.788;2023-03-20T03:40:05;4.05;;;3.65;;
19671;SDS011;9983;51.114;13.788;2023-03-20T03:45:23;6.47;;;4.20;;
19671;SDS011;9983;51.114;13.788;2023-03-20T03:50:30;3.95;;;3.60;;
19671;SDS011;9983;51.114;13.788;2023-03-20T03:55:40;7.82;;;4.35;;
19671;SDS011;9983;51.114;13.788;2023-03-20T04:00:45;3.97;;;3.50;;
19671;SDS011;9983;51.114;13.788;2023-03-20T04:05:49;5.38;;;3.92;;
19671;SDS011;9983;51.114;13.788;2023-03-20T04:10:53;4.45;;;4.05;;
19671;SDS011;9983;51.114;13.788;2023-03-20T04:15:53;7.07;;;5.25;;
19671;SDS011;9983;51.114;13.788;2023-03-20T04:20:53;6.78;;;2.85;;
19671;SDS011;9983;51.114;13.788;2023-03-20T04:25:54;4.40;;;3.92;;
19671;SDS011;9983;51.114;13.788;2023-03-20T04:30:55;5.70;;;4.15;;
19671;SDS011;9983;51.114;13.788;2023-03-20T04:35:56;5.60;;;4.10;;
19671;SDS011;9983;51.114;13.788;2023-03-20T04:40:56;4.53;;;3.88;;
19671;SDS011;9983;51.114;13.788;2023-03-20T04:45:57;5.15;;;4.38;;
19671;SDS011;9983;51.114;13.788;2023-03-20T04:50:57;6.40;;;5.25;;
19671;SDS011;9983;51.114;13.788;2023-03-20T04:55:58;7.05;;;4.72;;
19671;SDS011;9983;51.114;13.788;2023-03-20T05:00:58;5.60;;;5.10;;
19671;SDS011;9983;51.114;13.788;2023-03-20T05:05:58;5.47;;;4.97;;
19671;SDS011;9983;51.114;13.788;2023-03-20T05:10:58;3.78;;;3.40;;
19671;SDS011;9983;51.114;13.788;2023-03-20T05:15:59;5.25;;;4.75;;
19671;SDS011;9983;51.114;13.788;2023-03-20T05:21:00;5.10;;;4.60;;
19671;SDS011;9983;51.114;13.788;2023-03-20T05:26:01;5.90;;;4.43;;
19671;SDS011;9983;51.114;13.788;2023-03-20T05:31:02;5.72;;;4.53;;
19671;SDS011;9983;51.114;13.788;2023-03-20T05:36:03;5.38;;;4.88;;
19671;SDS011;9983;51.114;13.788;2023-03-20T05:41:03;5.00;;;4.50;;
19671;SDS011;9983;51.114;13.788;2023-03-20T05:46:03;4.45;;;3.70;;
19671;SDS011;9983;51.114;13.788;2023-03-20T05:51:04;4.32;;;3.92;;
19671;SDS011;9983;51.114;13.788;2023-03-20T05:56:05;5.68;;;4.18;;
19671;SDS011;9983;51.114;13.788;2023-03-20T06:01:05;5.57;;;3.95;;
19671;SDS011;9983;51.114;13.788;2023-03-20T06:06:06;4.93;;;3.70;;
19671;SDS011;9983;51.114;13.788;2023-03-20T06:11:06;4.15;;;3.22;;
19671;SDS011;9983;51.114;13.788;2023-03-20T06:16:07;5.05;;;3.65;;
19671;SDS011;9983;51.114;13.788;2023-03-20T06:21:08;4.40;;;3.25;;
19671;SDS011;9983;51.114;13.788;2023-03-20T06:26:10;4.00;;;3.13;;
19671;SDS011;9983;51.114;13.788;2023-03-20T06:31:11;4.00;;;3.20;;
19671;SDS011;9983;51.114;13.788;2023-03-20T06:36:11;4.55;;;3.15;;
19671;SDS011;9983;51.114;13.788;2023-03-20T06:41:12;4.15;;;3.28;;
19671;SDS011;9983;51.114;13.788;2023-03-20T06:46:12;4.60;;;3.42;;
19671;SDS011;9983;51.114;13.788;2023-03-20T06:51:12;4.10;;;3.15;;
19671;SDS011;9983;51.114;13.788;2023-03-20T06:56:13;5.78;;;3.45;;
19671;SDS011;9983;51.114;13.788;2023-03-20T07:01:14;4.00;;;3.35;;
19671;SDS011;9983;51.114;13.788;2023-03-20T07:06:16;3.92;;;3.33;;
19671;SDS011;9983;51.114;13.788;2023-03-20T07:11:17;4.20;;;3.67;;
19671;SDS011;9983;51.114;13.788;2023-03-20T07:16:17;4.68;;;3.42;;
19671;SDS011;9983;51.114;13.788;2023-03-20T07:21:19;3.40;;;3.10;;
19671;SDS011;9983;51.114;13.788;2023-03-20T07:26:21;3.55;;;3.30;;
19671;SDS011;9983;51.114;13.788;2023-03-20T07:31:23;4.05;;;3.33;;
19671;SDS011;9983;51.114;13.788;2023-03-20T07:36:25;3.92;;;3.47;;
19671;SDS011;9983;51.114;13.788;2023-03-20T07:41:25;3.65;;;3.40;;
19671;SDS011;9983;51.114;13.788;2023-03-20T07:46:26;3.47;;;3.17;;
19671;SDS011;9983;51.114;13.788;2023-03-20T07:51:26;3.90;;;3.53;;
19671;SDS011;9983;51.114;13.788;2023-03-20T07:56:26;3.83;;;3.42;;
19671;SDS011;9983;51.114;13.788;2023-03-20T08:01:27;3.95;;;3.55;;
19671;SDS011;9983;51.114;13.788;2023-03-20T08:06:27;6.70;;;3.60;;
19671;SDS011;9983;51.114;13.788;2023-03-20T08:11:27;4.35;;;3.83;;
19671;SDS011;9983;51.114;13.788;2023-03-20T08:16:27;5.13;;;4.57;;
19671;SDS011;9983;51.114;13.788;2023-03-20T08:21:28;5.15;;;4.40;;
19671;SDS011;9983;51.114;13.788;2023-03-20T08:26:29;5.45;;;4.50;;
19671;SDS011;9983;51.114;13.788;2023-03-20T08:31:30;5.15;;;4.65;;
19671;SDS011;9983;51.114;13.788;2023-03-20T08:36:30;4.68;;;4.15;;
19671;SDS011;9983;51.114;13.788;2023-03-20T08:41:30;5.13;;;4.63;;
19671;SDS011;9983;51.114;13.788;2023-03-20T08:46:31;6.55;;;5.03;;
19671;SDS011;9983;51.114;13.788;2023-03-20T08:51:31;6.65;;;5.63;;
19671;SDS011;9983;51.114;13.788;2023-03-20T08:56:32;8.77;;;6.75;;
19671;SDS011;9983;51.114;13.788;2023-03-20T09:01:32;9.32;;;8.25;;
19671;SDS011;9983;51.114;13.788;2023-03-20T09:06:34;7.82;;;6.28;;
19671;SDS011;9983;51.114;13.788;2023-03-20T09:11:36;8.25;;;6.93;;
19671;SDS011;9983;51.114;13.788;2023-03-20T09:16:36;7.40;;;6.70;;
19671;SDS011;9983;51.114;13.788;2023-03-20T09:21:36;10.40;;;7.50;;
19671;SDS011;9983;51.114;13.788;2023-03-20T09:26:37;13.30;;;9.13;;
19671;SDS011;9983;51.114;13.788;2023-03-20T09:31:38;16.40;;;12.88;;
19671;SDS011;9983;51.114;13.788;2023-03-20T09:36:39;19.13;;;13.98;;
19671;SDS011;9983;51.114;13.788;2023-03-20T09:41:39;21.88;;;14.98;;
19671;SDS011;9983;51.114;13.788;2023-03-20T09:46:54;21.00;;;14.88;;
19671;SDS011;9983;51.114;13.788;2023-03-20T09:52:19;20.40;;;14.25;;
19671;SDS011;9983;51.114;13.788;2023-03-20T09:57:27;17.33;;;14.00;;
19671;SDS011;9983;51.114;13.788;2023-03-20T10:02:36;17.10;;;12.73;;
19671;SDS011;9983;51.114;13.788;2023-03-20T10:07:42;20.27;;;14.00;;
19671;SDS011;9983;51.114;13.788;2023-03-20T10:18:03;28.08;;;18.15;;
19671;SDS011;9983;51.114;13.788;2023-03-20T10:28:55;25.65;;;17.20;;
19671;SDS011;9983;51.114;13.788;2023-03-20T10:34:01;21.30;;;16.65;;
19671;SDS011;9983;51.114;13.788;2023-03-20T10:44:36;24.42;;;15.88;;
19671;SDS011;9983;51.114;13.788;2023-03-20T10:49:45;22.73;;;15.68;;
19671;SDS011;9983;51.114;13.788;2023-03-20T10:54:49;20.05;;;14.45;;
19671;SDS011;9983;51.114;13.788;2023-03-20T10:59:55;18.02;;;14.05;;
19671;SDS011;9983;51.114;13.788;2023-03-20T11:04:58;18.40;;;13.25;;
19671;SDS011;9983;51.114;13.788;2023-03-20T11:15:24;18.60;;;12.52;;
19671;SDS011;9983;51.114;13.788;2023-03-20T11:20:26;14.73;;;12.02;;
19671;SDS011;9983;51.114;13.788;2023-03-20T11:25:52;14.88;;;12.05;;
19671;SDS011;9983;51.114;13.788;2023-03-20T11:31:02;20.08;;;13.43;;
19671;SDS011;9983;51.114;13.788;2023-03-20T11:36:24;19.60;;;13.80;;
19671;SDS011;9983;51.114;13.788;2023-03-20T11:41:28;20.17;;;14.00;;
19671;SDS011;9983;51.114;13.788;2023-03-20T11:46:29;22.88;;;15.43;;
19671;SDS011;9983;51.114;13.788;2023-03-20T11:51:29;22.95;;;15.88;;
19671;SDS011;9983;51.114;13.788;2023-03-20T11:56:33;21.65;;;14.57;;
19671;SDS011;9983;51.114;13.788;2023-03-20T12:01:47;21.60;;;14.80;;
19671;SDS011;9983;51.114;13.788;2023-03-20T12:07:10;21.25;;;14.20;;
19671;SDS011;9983;51.114;13.788;2023-03-20T12:17:29;23.63;;;17.00;;
19671;SDS011;9983;51.114;13.788;2023-03-20T12:23:09;27.60;;;17.60;;
19671;SDS011;9983;51.114;13.788;2023-03-20T12:28:24;27.48;;;17.98;;
19671;SDS011;9983;51.114;13.788;2023-03-20T12:38:56;27.08;;;18.25;;
19671;SDS011;9983;51.114;13.788;2023-03-20T12:44:12;27.35;;;18.02;;
19671;SDS011;9983;51.114;13.788;2023-03-20T12:49:42;26.65;;;17.70;;
19671;SDS011;9983;51.114;13.788;2023-03-20T12:55:05;27.00;;;18.90;;
19671;SDS011;9983;51.114;13.788;2023-03-20T13:00:36;25.42;;;18.80;;
19671;SDS011;9983;51.114;13.788;2023-03-20T13:05:46;25.83;;;18.05;;
19671;SDS011;9983;51.114;13.788;2023-03-20T13:11:13;25.30;;;19.88;;
19671;SDS011;9983;51.114;13.788;2023-03-20T13:22:03;30.08;;;19.70;;
19671;SDS011;9983;51.114;13.788;2023-03-20T13:27:16;26.15;;;19.17;;
19671;SDS011;9983;51.114;13.788;2023-03-20T13:33:03;30.83;;;20.17;;
19671;SDS011;9983;51.114;13.788;2023-03-20T13:38:22;29.73;;;18.95;;
19671;SDS011;9983;51.114;13.788;2023-03-20T13:48:35;25.15;;;17.98;;
19671;SDS011;9983;51.114;13.788;2023-03-20T14:04:18;25.52;;;18.02;;
19671;SDS011;9983;51.114;13.788;2023-03-20T14:14:31;25.13;;;18.13;;
19671;SDS011;9983;51.114;13.788;2023-03-20T14:19:38;25.70;;;18.85;;
19671;SDS011;9983;51.114;13.788;2023-03-20T14:24:38;26.50;;;18.40;;
19671;SDS011;9983;51.114;13.788;2023-03-20T14:29:40;24.67;;;18.20;;
19671;SDS011;9983;51.114;13.788;2023-03-20T14:34:44;25.53;;;18.17;;
19671;SDS011;9983;51.114;13.788;2023-03-20T14:39:47;30.05;;;19.25;;
19671;SDS011;9983;51.114;13.788;2023-03-20T14:50:31;31.80;;;21.30;;
19671;SDS011;9983;51.114;13.788;2023-03-20T15:00:48;32.38;;;20.90;;
19671;SDS011;9983;51.114;13.788;2023-03-20T15:05:49;34.45;;;22.10;;
19671;SDS011;9983;51.114;13.788;2023-03-20T15:10:56;35.42;;;22.60;;
19671;SDS011;9983;51.114;13.788;2023-03-20T15:16:04;40.60;;;23.25;;
19671;SDS011;9983;51.114;13.788;2023-03-20T15:21:26;34.38;;;21.98;;
19671;SDS011;9983;51.114;13.788;2023-03-20T15:26:28;35.30;;;22.77;;
19671;SDS011;9983;51.114;13.788;2023-03-20T15:31:32;37.72;;;23.40;;
19671;SDS011;9983;51.114;13.788;2023-03-20T15:36:34;44.97;;;26.05;;
19671;SDS011;9983;51.114;13.788;2023-03-20T15:41:38;42.13;;;25.73;;
19671;SDS011;9983;51.114;13.788;2023-03-20T15:46:39;42.75;;;25.52;;
19671;SDS011;9983;51.114;13.788;2023-03-20T15:51:39;41.15;;;24.27;;
19671;SDS011;9983;51.114;13.788;2023-03-20T15:56:41;45.42;;;25.88;;
19671;SDS011;9983;51.114;13.788;2023-03-20T16:01:45;44.67;;;26.10;;
19671;SDS011;9983;51.114;13.788;2023-03-20T16:06:51;49.67;;;27.15;;
19671;SDS011;9983;51.114;13.788;2023-03-20T16:11:56;47.85;;;26.83;;
19671;SDS011;9983;51.114;13.788;2023-03-20T16:16:59;53.40;;;28.63;;
19671;SDS011;9983;51.114;13.788;2023-03-20T16:22:02;45.80;;;27.25;;
19671;SDS011;9983;51.114;13.788;2023-03-20T16:27:07;48.55;;;26.27;;
19671;SDS011;9983;51.114;13.788;2023-03-20T16:37:37;52.10;;;29.65;;
19671;SDS011;9983;51.114;13.788;2023-03-20T16:42:45;54.33;;;28.92;;
19671;SDS011;9983;51.114;13.788;2023-03-20T16:47:46;48.97;;;28.48;;
19671;SDS011;9983;51.114;13.788;2023-03-20T16:52:54;50.53;;;28.55;;
19671;SDS011;9983;51.114;13.788;2023-03-20T16:57:58;52.58;;;29.17;;
19671;SDS011;9983;51.114;13.788;2023-03-20T17:03:15;54.63;;;29.40;;
19671;SDS011;9983;51.114;13.788;2023-03-20T17:08:30;51.47;;;29.35;;
19671;SDS011;9983;51.114;13.788;2023-03-20T17:13:34;49.10;;;28.33;;
19671;SDS011;9983;51.114;13.788;2023-03-20T17:18:34;50.28;;;28.35;;
19671;SDS011;9983;51.114;13.788;2023-03-20T17:23:36;46.80;;;27.20;;
19671;SDS011;9983;51.114;13.788;2023-03-20T17:28:36;48.35;;;27.23;;
19671;SDS011;9983;51.114;13.788;2023-03-20T17:33:37;50.70;;;28.98;;
19671;SDS011;9983;51.114;13.788;2023-03-20T17:38:37;51.27;;;27.50;;
19671;SDS011;9983;51.114;13.788;2023-03-20T17:43:38;43.10;;;24.30;;
19671;SDS011;9983;51.114;13.788;2023-03-20T17:48:38;41.00;;;23.83;;
19671;SDS011;9983;51.114;13.788;2023-03-20T17:53:38;42.78;;;23.20;;
19671;SDS011;9983;51.114;13.788;2023-03-20T17:58:39;42.38;;;24.08;;
19671;SDS011;9983;51.114;13.788;2023-03-20T18:03:40;41.58;;;24.08;;
19671;SDS011;9983;51.114;13.788;2023-03-20T18:08:40;37.63;;;22.20;;
19671;SDS011;9983;51.114;13.788;2023-03-20T18:13:41;36.50;;;20.00;;
19671;SDS011;9983;51.114;13.788;2023-03-20T18:18:41;38.05;;;22.33;;
19671;SDS011;9983;51.114;13.788;2023-03-20T18:23:42;37.47;;;20.60;;
19671;SDS011;9983;51.114;13.788;2023-03-20T18:28:43;35.13;;;20.10;;
19671;SDS011;9983;51.114;13.788;2023-03-20T18:33:45;23.52;;;16.05;;
19671;SDS011;9983;51.114;13.788;2023-03-20T18:38:46;30.40;;;18.02;;
19671;SDS011;9983;51.114;13.788;2023-03-20T18:43:47;24.17;;;15.82;;
19671;SDS011;9983;51.114;13.788;2023-03-20T18:48:48;33.72;;;20.08;;
19671;SDS011;9983;51.114;13.788;2023-03-20T18:53:50;30.70;;;18.70;;
19671;SDS011;9983;51.114;13.788;2023-03-20T18:58:51;24.73;;;16.27;;
19671;SDS011;9983;51.114;13.788;2023-03-20T19:03:52;33.22;;;20.23;;
19671;SDS011;9983;51.114;13.788;2023-03-20T19:08:52;29.63;;;17.75;;
19671;SDS011;9983;51.114;13.788;2023-03-20T19:13:52;34.00;;;19.17;;
19671;SDS011;9983;51.114;13.788;2023-03-20T19:18:53;26.63;;;16.77;;
19671;SDS011;9983;51.114;13.788;2023-03-20T19:23:56;21.52;;;13.95;;
19671;SDS011;9983;51.114;13.788;2023-03-20T19:28:58;20.30;;;14.07;;
19671;SDS011;9983;51.114;13.788;2023-03-20T19:34:00;26.90;;;18.10;;
19671;SDS011;9983;51.114;13.788;2023-03-20T19:39:01;29.65;;;16.30;;
19671;SDS011;9983;51.114;13.788;2023-03-20T19:44:03;26.25;;;15.48;;
19671;SDS011;9983;51.114;13.788;2023-03-20T19:49:04;27.23;;;16.40;;
19671;SDS011;9983;51.114;13.788;2023-03-20T19:54:04;27.42;;;16.67;;
19671;SDS011;9983;51.114;13.788;2023-03-20T19:59:05;29.07;;;16.97;;
19671;SDS011;9983;51.114;13.788;2023-03-20T20:04:05;27.42;;;16.35;;
19671;SDS011;9983;51.114;13.788;2023-03-20T20:09:05;25.75;;;15.50;;
19671;SDS011;9983;51.114;13.788;2023-03-20T20:14:06;22.42;;;14.57;;
19671;SDS011;9983;51.114;13.788;2023-03-20T20:19:06;26.50;;;15.70;;
19671;SDS011;9983;51.114;13.788;2023-03-20T20:24:07;69.28;;;16.27;;
19671;SDS011;9983;51.114;13.788;2023-03-20T20:29:07;27.35;;;14.85;;
19671;SDS011;9983;51.114;13.788;2023-03-20T20:34:08;99.88;;;17.83;;
19671;SDS011;9983;51.114;13.788;2023-03-20T20:39:08;59.78;;;15.20;;
19671;SDS011;9983;51.114;13.788;2023-03-20T20:44:09;37.08;;;14.85;;
19671;SDS011;9983;51.114;13.788;2023-03-20T20:49:10;76.35;;;16.00;;
19671;SDS011;9983;51.114;13.788;2023-03-20T20:54:10;51.58;;;16.45;;
19671;SDS011;9983;51.114;13.788;2023-03-20T20:59:11;122.55;;;18.08;;
19671;SDS011;9983;51.114;13.788;2023-03-20T21:04:11;19.88;;;11.98;;
19671;SDS011;9983;51.114;13.788;2023-03-20T21:09:12;49.88;;;15.63;;
19671;SDS011;9983;51.114;13.788;2023-03-20T21:14:12;22.05;;;12.10;;
19671;SDS011;9983;51.114;13.788;2023-03-20T21:19:13;32.30;;;11.95;;
19671;SDS011;9983;51.114;13.788;2023-03-20T21:24:13;19.33;;;11.85;;
19671;SDS011;9983;51.114;13.788;2023-03-20T21:29:14;17.67;;;12.60;;
19671;SDS011;9983;51.114;13.788;2023-03-20T21:34:14;18.58;;;12.23;;
19671;SDS011;9983;51.114;13.788;2023-03-20T21:39:16;17.83;;;12.23;;
19671;SDS011;9983;51.114;13.788;2023-03-20T21:44:17;18.15;;;12.20;;
19671;SDS011;9983;51.114;13.788;2023-03-20T21:49:18;18.23;;;12.15;;
19671;SDS011;9983;51.114;13.788;2023-03-20T21:54:19;18.60;;;12.02;;
19671;SDS011;9983;51.114;13.788;2023-03-20T21:59:21;17.75;;;12.32;;
19671;SDS011;9983;51.114;13.788;2023-03-20T22:04:21;22.40;;;13.35;;
19671;SDS011;9983;51.114;13.788;2023-03-20T22:09:22;18.02;;;12.30;;
19671;SDS011;9983;51.114;13.788;2023-03-20T22:14:22;19.88;;;12.77;;
19671;SDS011;9983;51.114;13.788;2023-03-20T22:19:22;23.92;;;13.80;;
19671;SDS011;9983;51.114;13.788;2023-03-20T22:24:22;17.95;;;12.25;;
19671;SDS011;9983;51.114;13.788;2023-03-20T22:29:23;19.95;;;12.25;;
19671;SDS011;9983;51.114;13.788;2023-03-20T22:34:23;18.10;;;11.73;;
19671;SDS011;9983;51.114;13.788;2023-03-20T22:39:25;22.52;;;12.05;;
19671;SDS011;9983;51.114;13.788;2023-03-20T22:44:26;20.63;;;12.50;;
19671;SDS011;9983;51.114;13.788;2023-03-20T22:49:26;20.67;;;12.48;;
19671;SDS011;9983;51.114;13.788;2023-03-20T22:54:26;20.80;;;13.50;;
19671;SDS011;9983;51.114;13.788;2023-03-20T22:59:27;24.42;;;13.95;;
19671;SDS011;9983;51.114;13.788;2023-03-20T23:04:27;21.40;;;13.50;;
19671;SDS011;9983;51.114;13.788;2023-03-20T23:09:27;20.92;;;13.98;;
19671;SDS011;9983;51.114;13.788;2023-03-20T23:14:28;19.75;;;12.45;;
19671;SDS011;9983;51.114;13.788;2023-03-20T23:19:28;19.55;;;13.80;;
19671;SDS011;9983;51.114;13.788;2023-03-20T23:24:28;20.27;;;13.55;;
19671;SDS011;9983;51.114;13.788;2023-03-20T23:29:29;21.23;;;14.05;;
19671;SDS011;9983;51.114;13.788;2023-03-20T23:34:29;20.88;;;13.18;;
19671;SDS011;9983;51.114;13.788;2023-03-20T23:39:29;21.42;;;13.18;;
19671;SDS011;9983;51.114;13.788;2023-03-20T23:44:29;22.52;;;14.48;;
19671;SDS011;9983;51.114;13.788;2023-03-20T23:49:30;20.02;;;13.65;;
19671;SDS011;9983;51.114;13.788;2023-03-20T23:54:30;21.93;;;13.83;;
19671;SDS011;9983;51.114;13.788;2023-03-20T23:59:30;24.50;;;15.27;;
